Time;durP1;ratioP1;P1;durP2;ratioP2;P2;SDS_P1;SDS_P2;PMS_P1;PMS_P2;Temp;Humidity;BMP_temperature;BMP_pressure;BME280_temperature;BME280_humidity;BME280_pressure;Samples;Min_cycle;Max_cycle;Signal;HPM_P1;HPM_P2
2021/09/02 00:02:23;;;;;;;6.33;3.13;;;16.00;99.90;;;;;;4989379;28;20294;-83
2021/09/02 00:04:50;;;;;;;8.77;3.23;;;15.90;99.90;;;;;;4991103;28;20206;-81
2021/09/02 00:07:21;;;;;;;7.97;2.97;;;15.90;99.90;;;;;;4988122;28;20201;-81
2021/09/02 00:09:48;;;;;;;7.77;3.40;;;15.90;99.90;;;;;;4982860;28;20199;-81
2021/09/02 00:12:15;;;;;;;7.63;3.10;;;15.90;99.90;;;;;;4982572;28;20203;-81
2021/09/02 00:14:42;;;;;;;6.95;3.45;;;15.90;99.90;;;;;;4981725;28;20234;-82
2021/09/02 00:17:09;;;;;;;6.60;3.37;;;15.90;99.90;;;;;;4982508;28;20202;-82
2021/09/02 00:19:36;;;;;;;7.13;3.03;;;15.90;99.90;;;;;;4984182;28;20191;-84
2021/09/02 00:22:04;;;;;;;7.93;3.42;;;15.90;99.90;;;;;;4984654;28;20859;-84
2021/09/02 00:24:32;;;;;;;7.00;3.25;;;15.80;99.90;;;;;;4986640;28;20227;-82
2021/09/02 00:26:59;;;;;;;6.70;3.22;;;15.80;99.90;;;;;;4985573;28;20305;-83
2021/09/02 00:29:26;;;;;;;6.13;3.47;;;15.80;99.90;;;;;;4985742;28;20198;-83
2021/09/02 00:31:53;;;;;;;6.40;3.20;;;15.80;99.90;;;;;;4986614;28;20290;-83
2021/09/02 00:34:20;;;;;;;7.00;3.08;;;15.80;99.90;;;;;;4985797;28;20759;-83
2021/09/02 00:36:47;;;;;;;9.82;4.07;;;15.70;99.90;;;;;;4981766;28;20313;-83
2021/09/02 00:39:14;;;;;;;8.38;3.58;;;15.80;99.90;;;;;;4985590;28;20195;-82
2021/09/02 00:41:43;;;;;;;7.65;3.50;;;15.70;99.90;;;;;;4987437;28;20726;-82
2021/09/02 00:44:09;;;;;;;8.50;3.70;;;15.70;99.90;;;;;;4987555;28;20225;-83
2021/09/02 00:46:36;;;;;;;6.97;3.77;;;15.70;99.90;;;;;;4989542;28;20236;-83
2021/09/02 00:49:04;;;;;;;6.97;4.03;;;15.70;99.90;;;;;;4986574;28;20203;-84
2021/09/02 00:51:31;;;;;;;9.85;4.15;;;15.70;99.90;;;;;;4987382;28;20233;-84
2021/09/02 00:53:58;;;;;;;9.80;4.05;;;15.70;99.90;;;;;;4988193;28;20604;-85
2021/09/02 00:56:26;;;;;;;8.65;4.28;;;15.60;99.90;;;;;;4987764;28;20209;-84
2021/09/02 00:58:55;;;;;;;6.18;3.90;;;15.60;99.90;;;;;;4985801;28;20206;-83
2021/09/02 01:01:22;;;;;;;6.38;4.40;;;15.60;99.90;;;;;;4984813;28;20273;-83
2021/09/02 01:03:49;;;;;;;9.13;5.43;;;15.60;99.90;;;;;;4992632;28;20206;-83
2021/09/02 01:06:17;;;;;;;8.17;4.60;;;15.60;99.90;;;;;;4987255;28;20207;-82
2021/09/02 01:08:45;;;;;;;10.63;4.80;;;15.60;99.90;;;;;;4990191;28;20223;-82
2021/09/02 01:11:12;;;;;;;8.60;5.43;;;15.70;99.90;;;;;;4984752;28;20211;-82
2021/09/02 01:13:39;;;;;;;9.87;5.60;;;15.60;99.90;;;;;;4987353;28;20236;-82
2021/09/02 01:16:07;;;;;;;9.03;5.30;;;15.60;99.90;;;;;;4968895;28;20202;-83
2021/09/02 01:18:34;;;;;;;8.38;5.35;;;15.60;99.90;;;;;;4990401;28;20191;-82
2021/09/02 01:21:01;;;;;;;9.60;5.60;;;15.60;99.90;;;;;;4985246;28;20329;-83
2021/09/02 01:23:35;;;;;;;9.40;5.63;;;15.60;99.90;;;;;;4987743;28;20974;-83
2021/09/02 01:26:02;;;;;;;11.50;5.75;;;15.60;99.90;;;;;;4986780;28;20752;-81
2021/09/02 01:28:30;;;;;;;8.52;5.50;;;15.60;99.90;;;;;;4984007;28;20199;-81
2021/09/02 01:30:57;;;;;;;8.43;5.23;;;15.60;99.90;;;;;;4986140;28;20206;-82
2021/09/02 01:33:24;;;;;;;8.77;5.70;;;15.60;99.90;;;;;;4984773;28;20222;-83
2021/09/02 01:35:51;;;;;;;12.03;5.47;;;15.60;99.90;;;;;;4985883;28;20213;-83
2021/09/02 01:38:18;;;;;;;10.93;5.77;;;15.60;99.90;;;;;;4987361;28;20271;-82
2021/09/02 01:40:48;;;;;;;11.90;5.83;;;15.50;99.90;;;;;;4987772;28;20293;-84
2021/09/02 01:43:16;;;;;;;9.37;6.07;;;15.50;99.90;;;;;;4987650;28;20206;-84
2021/09/02 01:45:43;;;;;;;7.68;4.78;;;15.50;99.90;;;;;;4987043;28;20281;-83
2021/09/02 01:48:10;;;;;;;8.23;5.17;;;15.50;99.90;;;;;;4987650;28;20195;-85
2021/09/02 01:50:41;;;;;;;8.73;4.83;;;15.50;99.90;;;;;;4986132;28;20230;-83
2021/09/02 01:53:10;;;;;;;11.15;4.68;;;15.50;99.90;;;;;;4984478;28;20726;-83
2021/09/02 01:55:37;;;;;;;9.13;5.37;;;15.50;99.90;;;;;;4983709;28;20297;-82
2021/09/02 01:58:06;;;;;;;9.87;5.77;;;15.60;99.90;;;;;;4984167;28;20561;-83
2021/09/02 02:00:34;;;;;;;9.20;5.33;;;15.50;99.90;;;;;;4988058;28;20312;-83
2021/09/02 02:03:01;;;;;;;8.70;5.20;;;15.50;99.90;;;;;;4983640;28;20202;-83
2021/09/02 02:05:30;;;;;;;11.27;5.53;;;15.40;99.90;;;;;;4987347;28;20213;-83
2021/09/02 02:07:57;;;;;;;9.93;5.40;;;15.40;99.90;;;;;;4984986;28;20223;-84
2021/09/02 02:10:27;;;;;;;9.85;5.45;;;15.40;99.90;;;;;;4986187;28;20195;-83
2021/09/02 02:12:54;;;;;;;11.57;6.00;;;15.40;99.90;;;;;;4982860;28;20291;-83
2021/09/02 02:15:23;;;;;;;9.75;6.05;;;15.40;99.90;;;;;;4984334;28;20229;-83
2021/09/02 02:17:51;;;;;;;10.80;6.03;;;15.40;99.90;;;;;;4985506;28;20245;-83
2021/09/02 02:20:18;;;;;;;10.97;6.00;;;15.40;99.90;;;;;;4983181;28;20199;-83
2021/09/02 02:22:45;;;;;;;10.93;5.40;;;15.40;99.90;;;;;;4982146;28;20709;-83
2021/09/02 02:25:14;;;;;;;10.70;5.93;;;15.40;99.90;;;;;;4982573;28;20202;-83
2021/09/02 02:27:41;;;;;;;8.88;6.18;;;15.40;99.90;;;;;;4984330;28;20294;-84
2021/09/02 02:30:12;;;;;;;10.13;6.03;;;15.40;99.90;;;;;;4988603;28;20279;-84
2021/09/02 02:32:41;;;;;;;13.27;6.40;;;15.40;99.90;;;;;;4988989;28;20210;-84
2021/09/02 02:35:09;;;;;;;10.32;5.70;;;15.40;99.90;;;;;;4987007;28;20313;-83
2021/09/02 02:37:35;;;;;;;11.15;5.93;;;15.50;99.90;;;;;;4986434;28;20201;-84
2021/09/02 02:40:03;;;;;;;11.07;6.27;;;15.40;99.90;;;;;;4986776;28;20202;-82
2021/09/02 02:42:30;;;;;;;10.07;5.70;;;15.40;99.90;;;;;;4988778;28;20511;-83
2021/09/02 02:44:57;;;;;;;8.50;5.50;;;15.40;99.90;;;;;;4986781;28;20285;-82
2021/09/02 02:47:24;;;;;;;9.27;6.10;;;15.40;99.90;;;;;;4987349;28;20290;-83
2021/09/02 02:49:52;;;;;;;9.43;6.30;;;15.40;99.90;;;;;;4986417;28;20203;-83
2021/09/02 02:52:20;;;;;;;12.85;5.90;;;15.40;99.90;;;;;;4985341;28;20205;-83
2021/09/02 02:54:47;;;;;;;10.27;5.97;;;15.40;99.90;;;;;;4984390;28;20337;-82
2021/09/02 02:57:13;;;;;;;13.07;6.13;;;15.40;99.90;;;;;;4986677;28;20221;-83
2021/09/02 02:59:40;;;;;;;12.03;6.53;;;15.40;99.90;;;;;;4986066;28;20821;-83
2021/09/02 03:02:08;;;;;;;10.23;6.47;;;15.40;99.90;;;;;;4988189;28;20594;-84
2021/09/02 03:04:34;;;;;;;12.20;6.63;;;15.40;99.90;;;;;;4985711;28;20201;-84
2021/09/02 03:07:03;;;;;;;10.90;6.37;;;15.40;99.90;;;;;;4986849;28;20190;-84
2021/09/02 03:09:30;;;;;;;11.60;6.50;;;15.40;99.90;;;;;;4986060;28;20201;-83
2021/09/02 03:11:57;;;;;;;10.53;6.07;;;15.40;99.90;;;;;;4988111;28;20576;-83
2021/09/02 03:14:24;;;;;;;10.43;6.70;;;15.40;99.90;;;;;;4988165;28;20675;-83
2021/09/02 03:16:51;;;;;;;8.33;6.07;;;15.30;99.90;;;;;;4988727;28;20210;-84
2021/09/02 03:19:18;;;;;;;10.53;6.43;;;15.30;99.90;;;;;;4986993;28;20307;-84
2021/09/02 03:21:45;;;;;;;8.17;6.03;;;15.30;99.90;;;;;;4985917;28;20289;-84
2021/09/02 03:24:13;;;;;;;12.23;7.30;;;15.30;99.90;;;;;;4989547;28;20237;-84
2021/09/02 03:26:40;;;;;;;10.60;6.33;;;15.30;99.90;;;;;;4985430;28;20302;-83
2021/09/02 03:29:07;;;;;;;13.07;7.33;;;15.30;99.90;;;;;;4985875;28;20281;-84
2021/09/02 03:31:34;;;;;;;10.33;6.27;;;15.30;99.90;;;;;;4984183;28;20306;-83
2021/09/02 03:34:01;;;;;;;9.20;6.20;;;15.30;99.90;;;;;;4988202;28;20227;-83
2021/09/02 03:36:28;;;;;;;12.93;6.43;;;15.30;99.90;;;;;;4986113;28;20201;-84
2021/09/02 03:38:55;;;;;;;13.17;6.87;;;15.30;99.90;;;;;;4988577;28;20201;-85
2021/09/02 03:41:23;;;;;;;11.80;7.10;;;15.20;99.90;;;;;;4985281;28;20736;-84
2021/09/02 03:43:50;;;;;;;10.73;7.13;;;15.20;99.90;;;;;;4983871;28;20195;-84
2021/09/02 03:46:17;;;;;;;12.57;6.27;;;15.20;99.90;;;;;;4982823;28;20199;-85
2021/09/02 03:48:43;;;;;;;10.07;6.57;;;15.20;99.90;;;;;;4983783;28;20199;-83
2021/09/02 03:51:10;;;;;;;10.93;6.40;;;15.20;99.90;;;;;;4985838;28;20209;-83
2021/09/02 03:53:37;;;;;;;11.80;6.50;;;15.20;99.90;;;;;;4984807;28;20297;-83
2021/09/02 03:56:05;;;;;;;12.37;6.53;;;15.10;99.90;;;;;;4980603;28;20218;-82
2021/09/02 03:58:33;;;;;;;13.35;7.10;;;15.10;99.90;;;;;;4986546;28;20314;-83
2021/09/02 04:01:00;;;;;;;8.93;5.97;;;15.10;99.90;;;;;;4983307;28;20298;-84
2021/09/02 04:03:27;;;;;;;9.80;6.63;;;15.10;99.90;;;;;;4984376;28;20693;-84
2021/09/02 04:05:54;;;;;;;12.17;6.53;;;15.10;99.90;;;;;;4985846;28;20690;-83
2021/09/02 04:08:21;;;;;;;11.63;6.63;;;15.10;99.90;;;;;;4986559;28;20293;-83
2021/09/02 04:10:48;;;;;;;9.85;6.75;;;15.10;99.90;;;;;;4983639;28;20205;-81
2021/09/02 04:13:15;;;;;;;13.07;7.25;;;15.10;99.90;;;;;;4986314;28;20304;-83
2021/09/02 04:15:43;;;;;;;12.03;7.33;;;15.10;99.90;;;;;;4988137;28;20309;-85
2021/09/02 04:18:10;;;;;;;14.93;6.93;;;15.10;99.90;;;;;;4988719;28;20306;-87
2021/09/02 04:20:37;;;;;;;10.38;7.38;;;15.10;99.90;;;;;;4985207;28;20332;-81
2021/09/02 04:23:04;;;;;;;11.63;6.17;;;15.10;99.90;;;;;;4982045;28;20199;-84
2021/09/02 04:25:31;;;;;;;13.13;7.23;;;15.00;99.90;;;;;;4982730;28;20202;-82
2021/09/02 04:27:58;;;;;;;10.07;6.80;;;15.00;99.90;;;;;;4984011;28;20286;-84
2021/09/02 04:30:25;;;;;;;12.23;6.80;;;15.00;99.90;;;;;;4986452;28;20222;-83
2021/09/02 04:32:53;;;;;;;11.90;7.00;;;15.10;99.90;;;;;;4983834;28;20218;-81
2021/09/02 04:35:20;;;;;;;12.07;6.87;;;15.00;99.90;;;;;;4988737;28;20226;-82
2021/09/02 04:37:48;;;;;;;14.67;7.57;;;15.00;99.90;;;;;;4985283;28;20205;-81
2021/09/02 04:40:17;;;;;;;13.97;7.53;;;15.00;99.90;;;;;;4984541;28;20657;-82
2021/09/02 04:42:44;;;;;;;13.33;7.23;;;15.00;99.90;;;;;;4983975;28;20314;-84
2021/09/02 04:45:12;;;;;;;13.23;7.27;;;15.00;99.90;;;;;;4991303;28;20210;-82
2021/09/02 04:47:39;;;;;;;14.13;7.53;;;15.00;99.90;;;;;;4985228;28;20199;-83
2021/09/02 04:50:11;;;;;;;13.10;7.03;;;15.00;99.90;;;;;;4987455;28;20227;-80
2021/09/02 04:52:38;;;;;;;12.50;7.50;;;15.00;99.90;;;;;;4985508;28;20199;-82
2021/09/02 04:55:07;;;;;;;12.00;6.83;;;15.00;99.90;;;;;;4988863;28;20215;-83
2021/09/02 04:57:33;;;;;;;15.93;8.07;;;14.90;99.90;;;;;;4980205;28;20278;-81
2021/09/02 05:00:03;;;;;;;15.93;7.72;;;14.90;99.90;;;;;;4990882;28;20206;-84
2021/09/02 05:02:30;;;;;;;15.80;8.17;;;14.90;99.90;;;;;;4984089;28;20209;-83
2021/09/02 05:04:57;;;;;;;14.20;7.80;;;14.90;99.90;;;;;;4988899;28;20210;-82
2021/09/02 05:07:29;;;;;;;15.80;7.78;;;14.90;99.90;;;;;;4990151;28;20216;-84
2021/09/02 05:09:56;;;;;;;12.83;7.90;;;14.90;99.90;;;;;;4995600;28;20569;-85
2021/09/02 05:12:22;;;;;;;14.50;8.80;;;14.90;99.90;;;;;;5004534;28;20263;-84
2021/09/02 05:14:49;;;;;;;13.37;8.33;;;14.90;99.90;;;;;;5002301;28;20254;-83
2021/09/02 05:17:16;;;;;;;12.80;8.00;;;14.90;99.90;;;;;;4992443;28;20600;-81
2021/09/02 05:19:43;;;;;;;16.80;8.70;;;14.80;99.90;;;;;;4990879;28;20227;-82
2021/09/02 05:22:10;;;;;;;14.67;8.83;;;14.80;99.90;;;;;;4987619;28;20298;-83
2021/09/02 05:24:38;;;;;;;12.70;8.00;;;14.80;99.90;;;;;;4990430;28;20629;-81
2021/09/02 05:27:09;;;;;;;14.50;8.27;;;14.80;99.90;;;;;;4986974;28;20206;-82
2021/09/02 05:29:35;;;;;;;14.17;8.37;;;14.80;99.90;;;;;;4990440;28;20281;-82
2021/09/02 05:32:04;;;;;;;13.27;8.23;;;14.80;99.90;;;;;;4983005;28;20219;-82
2021/09/02 05:34:31;;;;;;;17.40;8.97;;;14.90;99.90;;;;;;4989939;28;20223;-82
2021/09/02 05:36:58;;;;;;;16.03;9.97;;;14.90;99.90;;;;;;4989021;28;20503;-80
2021/09/02 05:39:25;;;;;;;13.63;9.20;;;14.90;99.90;;;;;;4989967;28;20823;-81
2021/09/02 05:41:54;;;;;;;12.93;8.77;;;14.90;99.90;;;;;;4990108;28;20198;-83
2021/09/02 05:44:21;;;;;;;17.00;9.33;;;15.00;99.90;;;;;;4989151;28;20213;-84
2021/09/02 05:46:48;;;;;;;14.67;8.80;;;14.90;99.90;;;;;;4988288;28;20724;-83
2021/09/02 05:49:15;;;;;;;14.70;8.97;;;15.00;99.90;;;;;;4989414;28;20285;-83
2021/09/02 05:51:42;;;;;;;15.83;9.03;;;15.00;99.90;;;;;;4990216;28;20220;-83
2021/09/02 05:54:17;;;;;;;14.67;9.63;;;15.00;99.90;;;;;;4991951;28;20561;-84
2021/09/02 05:56:44;;;;;;;15.00;9.20;;;15.00;99.90;;;;;;4988393;28;22144;-84
2021/09/02 05:59:12;;;;;;;16.93;9.17;;;15.10;99.90;;;;;;4986334;28;20668;-84
2021/09/02 06:01:39;;;;;;;16.30;9.30;;;15.10;99.90;;;;;;4987712;28;20201;-85
2021/09/02 06:04:06;;;;;;;13.53;8.67;;;15.10;99.90;;;;;;4989700;28;20221;-83
2021/09/02 06:06:34;;;;;;;12.70;9.40;;;15.20;99.90;;;;;;4986710;28;20203;-83
2021/09/02 06:09:01;;;;;;;20.57;10.17;;;15.20;99.90;;;;;;4986403;28;20704;-84
2021/09/02 06:11:29;;;;;;;15.23;8.73;;;15.20;99.90;;;;;;4988528;28;20261;-82
2021/09/02 06:13:56;;;;;;;17.30;9.73;;;15.30;99.90;;;;;;4984895;28;20223;-86
2021/09/02 06:16:24;;;;;;;15.53;9.53;;;15.30;99.90;;;;;;4987713;28;20321;-82
2021/09/02 06:18:51;;;;;;;17.97;9.50;;;15.30;99.90;;;;;;4988983;28;20198;-82
2021/09/02 06:21:18;;;;;;;16.83;9.40;;;15.40;99.90;;;;;;4989582;28;20730;-86
2021/09/02 06:23:48;;;;;;;17.52;9.77;;;15.50;99.90;;;;;;4985985;28;20194;-84
2021/09/02 06:26:14;;;;;;;15.10;9.40;;;15.60;99.90;;;;;;4986454;28;20341;-88
2021/09/02 06:28:41;;;;;;;16.30;9.25;;;15.60;99.90;;;;;;4991101;28;20267;-86
2021/09/02 06:31:08;;;;;;;14.50;8.57;;;15.70;99.90;;;;;;4986248;28;20220;-88
2021/09/02 06:33:38;;;;;;;19.33;9.75;;;15.80;99.90;;;;;;4987032;28;20253;-83
2021/09/02 06:36:05;;;;;;;15.50;9.07;;;15.90;99.90;;;;;;4983020;28;20227;-85
2021/09/02 06:38:32;;;;;;;15.00;9.30;;;15.90;99.90;;;;;;4993903;28;20215;-87
2021/09/02 06:40:59;;;;;;;14.40;8.57;;;16.00;99.90;;;;;;4984860;28;20217;-83
2021/09/02 06:43:26;;;;;;;12.10;8.32;;;16.00;99.90;;;;;;4984978;28;20222;-84
2021/09/02 06:45:53;;;;;;;16.90;8.88;;;16.00;99.90;;;;;;4984053;28;20226;-86
2021/09/02 06:48:20;;;;;;;18.27;9.47;;;16.10;99.90;;;;;;4988765;28;20238;-86
2021/09/02 06:50:49;;;;;;;16.17;8.73;;;16.10;99.90;;;;;;4991575;28;20729;-87
2021/09/02 06:53:16;;;;;;;14.15;8.52;;;16.20;99.90;;;;;;4986003;28;20203;-83
2021/09/02 06:55:43;;;;;;;14.53;7.63;;;16.20;99.90;;;;;;4987279;28;20229;-85
2021/09/02 06:58:10;;;;;;;17.60;8.93;;;16.10;99.90;;;;;;4986145;28;20195;-88
2021/09/02 07:00:37;;;;;;;13.18;7.57;;;16.10;99.90;;;;;;4987381;28;20232;-83
2021/09/02 07:03:04;;;;;;;14.35;8.30;;;16.10;99.90;;;;;;4988939;28;20195;-85
2021/09/02 07:05:30;;;;;;;14.60;9.20;;;16.20;99.90;;;;;;4995848;28;20231;-87
2021/09/02 07:08:02;;;;;;;16.77;8.50;;;16.30;99.90;;;;;;4994514;28;20262;-90
2021/09/02 07:10:31;;;;;;;10.52;8.43;;;16.40;99.90;;;;;;4999221;28;20229;-90
2021/09/02 07:12:58;;;;;;;15.70;8.52;;;16.50;99.90;;;;;;4990079;28;20569;-86
2021/09/02 07:15:25;;;;;;;12.85;9.15;;;16.40;99.90;;;;;;4989605;28;20273;-84
2021/09/02 07:17:52;;;;;;;13.60;8.07;;;16.60;99.90;;;;;;4987805;28;20451;-87
2021/09/02 07:20:21;;;;;;;17.20;9.13;;;16.60;99.90;;;;;;4989904;28;20253;-88
2021/09/02 07:22:48;;;;;;;16.90;8.52;;;16.70;99.90;;;;;;4985204;28;20654;-85
2021/09/02 07:25:16;;;;;;;13.35;8.93;;;16.80;99.90;;;;;;4989706;28;20202;-86
2021/09/02 07:27:43;;;;;;;12.95;8.05;;;16.70;99.90;;;;;;4982339;28;20209;-85
2021/09/02 07:30:11;;;;;;;15.63;7.85;;;16.80;99.90;;;;;;4988836;28;20201;-79
2021/09/02 07:32:38;;;;;;;12.98;7.65;;;17.00;99.90;;;;;;4978713;28;20241;-82
2021/09/02 07:35:05;;;;;;;15.45;9.05;;;17.30;99.90;;;;;;4984935;28;20191;-82
2021/09/02 07:37:32;;;;;;;11.43;8.38;;;17.10;99.90;;;;;;4983859;28;20222;-80
2021/09/02 07:39:59;;;;;;;18.00;9.35;;;17.00;99.90;;;;;;4984666;28;20689;-84
2021/09/02 07:42:28;;;;;;;14.38;9.63;;;16.90;99.90;;;;;;4986100;28;20287;-87
2021/09/02 07:44:55;;;;;;;16.75;10.85;;;16.80;99.90;;;;;;4982758;28;20637;-88
2021/09/02 07:47:22;;;;;;;13.90;9.20;;;16.80;99.90;;;;;;4984898;28;20689;-86
2021/09/02 07:49:49;;;;;;;16.70;9.82;;;16.90;99.90;;;;;;4985596;28;20648;-88
2021/09/02 07:52:16;;;;;;;14.73;9.38;;;16.90;99.90;;;;;;4983636;28;20303;-81
2021/09/02 07:54:43;;;;;;;13.25;9.73;;;16.90;99.90;;;;;;4986482;28;20226;-86
2021/09/02 07:57:10;;;;;;;19.38;11.48;;;17.10;99.90;;;;;;4986150;28;20227;-86
2021/09/02 07:59:40;;;;;;;15.23;10.18;;;17.20;99.90;;;;;;4985145;28;20277;-85
2021/09/02 08:02:07;;;;;;;15.45;9.80;;;17.40;99.90;;;;;;4984637;28;20242;-89
2021/09/02 08:04:34;;;;;;;14.65;10.68;;;17.40;99.90;;;;;;4988987;28;20209;-87
2021/09/02 08:07:02;;;;;;;15.85;10.20;;;18.00;99.90;;;;;;4987391;28;20668;-85
2021/09/02 08:09:29;;;;;;;15.75;11.40;;;18.50;99.90;;;;;;4988375;28;20226;-84
2021/09/02 08:11:56;;;;;;;17.27;10.80;;;18.10;99.90;;;;;;4987662;28;20578;-86
2021/09/02 08:14:23;;;;;;;18.48;10.88;;;18.20;99.90;;;;;;4982524;28;20210;-83
2021/09/02 08:16:51;;;;;;;13.60;10.85;;;18.40;99.90;;;;;;4978423;28;20697;-85
2021/09/02 08:19:18;;;;;;;19.00;11.50;;;18.20;99.90;;;;;;4990459;28;20226;-80
2021/09/02 08:21:45;;;;;;;16.65;11.13;;;18.30;99.90;;;;;;4990133;28;20199;-83
2021/09/02 08:24:12;;;;;;;15.80;10.18;;;18.90;99.90;;;;;;4982828;28;20191;-83
2021/09/02 08:26:40;;;;;;;17.70;10.98;;;19.50;99.90;;;;;;4988071;28;20557;-82
2021/09/02 08:29:06;;;;;;;17.35;11.93;;;19.10;99.90;;;;;;4990357;28;20199;-83
2021/09/02 08:31:33;;;;;;;14.68;10.88;;;19.40;99.90;;;;;;4985331;28;20253;-83
2021/09/02 08:34:02;;;;;;;27.88;16.15;;;19.40;99.90;;;;;;4981557;28;20239;-81
2021/09/02 08:36:28;;;;;;;17.67;11.93;;;19.90;99.90;;;;;;4987865;28;20226;-83
2021/09/02 08:38:55;;;;;;;18.70;9.93;;;19.90;99.90;;;;;;4988294;28;20198;-83
2021/09/02 08:41:23;;;;;;;21.95;13.35;;;19.60;99.90;;;;;;4984885;28;20229;-82
2021/09/02 08:43:53;;;;;;;16.67;11.75;;;19.40;99.90;;;;;;4985941;28;20238;-85
2021/09/02 08:46:21;;;;;;;18.30;12.32;;;19.10;99.90;;;;;;4992751;28;20650;-83
2021/09/02 08:48:49;;;;;;;18.25;10.93;;;18.50;99.90;;;;;;4990269;28;20754;-83
2021/09/02 08:51:18;;;;;;;16.15;10.90;;;18.40;99.90;;;;;;4985727;28;20268;-81
2021/09/02 08:53:45;;;;;;;16.08;10.55;;;18.80;99.90;;;;;;4992459;28;20218;-84
2021/09/02 08:56:12;;;;;;;13.60;9.82;;;18.70;99.90;;;;;;4991856;28;20306;-86
2021/09/02 08:58:39;;;;;;;16.98;10.82;;;19.30;99.90;;;;;;4989091;28;20311;-78
2021/09/02 09:01:09;;;;;;;14.77;10.38;;;19.20;99.90;;;;;;4989251;28;20202;-84
2021/09/02 09:03:38;;;;;;;16.00;11.23;;;18.80;99.90;;;;;;4989652;28;20222;-85
2021/09/02 09:06:07;;;;;;;17.25;10.55;;;19.30;99.90;;;;;;4989731;28;20223;-84
2021/09/02 09:08:37;;;;;;;17.10;10.80;;;19.30;99.90;;;;;;4987703;28;20207;-83
2021/09/02 09:11:18;;;;;;;16.48;10.90;;;19.40;99.90;;;;;;4987799;28;20286;-79
2021/09/02 09:13:46;;;;;;;15.88;11.00;;;20.10;99.90;;;;;;4987054;28;20266;-75
2021/09/02 09:16:13;;;;;;;17.70;9.80;;;19.30;99.90;;;;;;4985898;28;20309;-81
2021/09/02 09:18:45;;;;;;;17.02;9.88;;;19.20;99.90;;;;;;4986570;28;20227;-81
2021/09/02 09:21:15;;;;;;;17.05;10.57;;;19.60;99.90;;;;;;4991038;28;20850;-79
2021/09/02 09:23:53;;;;;;;12.98;9.20;;;19.80;99.90;;;;;;4989840;28;20195;-79
2021/09/02 09:26:20;;;;;;;16.10;10.48;;;20.00;99.90;;;;;;4985119;28;20210;-80
2021/09/02 09:28:47;;;;;;;17.17;9.80;;;19.40;99.90;;;;;;4988101;28;20223;-84
2021/09/02 09:31:29;;;;;;;17.38;10.55;;;19.80;99.90;;;;;;4994572;28;20233;-80
2021/09/02 09:33:58;;;;;;;14.15;11.18;;;20.00;99.90;;;;;;4992359;28;20286;-85
2021/09/02 09:36:28;;;;;;;13.77;10.00;;;19.40;99.90;;;;;;4991705;28;20281;-83
2021/09/02 09:39:06;;;;;;;19.63;10.10;;;19.90;99.90;;;;;;4988730;28;20203;-83
2021/09/02 09:41:34;;;;;;;15.05;9.30;;;21.10;99.80;;;;;;4984632;28;20249;-78
2021/09/02 09:44:22;;;;;;;15.38;10.00;;;21.10;99.40;;;;;;4990537;28;20230;-81
2021/09/02 09:47:08;;;;;;;17.48;10.85;;;20.50;99.90;;;;;;4989166;28;20263;-83
2021/09/02 09:49:46;;;;;;;17.48;10.05;;;21.30;99.40;;;;;;4991521;28;20230;-81
2021/09/02 09:52:25;;;;;;;15.02;10.55;;;21.10;99.00;;;;;;4987545;28;20225;-88
2021/09/02 09:54:55;;;;;;;16.83;11.27;;;20.50;99.70;;;;;;4987736;28;20773;-84
2021/09/02 09:57:22;;;;;;;15.48;10.82;;;20.20;99.90;;;;;;4990166;28;20246;-81
2021/09/02 09:59:52;;;;;;;15.05;10.57;;;19.60;99.90;;;;;;4989784;28;20203;-80
2021/09/02 10:02:21;;;;;;;18.08;11.05;;;19.50;99.90;;;;;;4989275;28;20206;-81
2021/09/02 10:04:54;;;;;;;18.58;11.77;;;19.30;99.90;;;;;;4989627;28;20764;-78
2021/09/02 10:07:22;;;;;;;19.27;11.43;;;19.20;99.90;;;;;;4989023;28;20226;-80
2021/09/02 10:09:51;;;;;;;17.70;12.88;;;19.20;99.90;;;;;;4992309;28;20289;-82
2021/09/02 10:12:20;;;;;;;17.65;11.52;;;19.90;99.90;;;;;;4990951;28;20210;-82
2021/09/02 10:14:49;;;;;;;19.35;13.10;;;19.90;99.90;;;;;;4990878;28;20250;-87
2021/09/02 10:17:17;;;;;;;13.15;10.75;;;19.60;99.90;;;;;;4994618;28;20222;-82
2021/09/02 10:19:45;;;;;;;16.73;11.23;;;19.70;99.90;;;;;;4993034;28;20210;-83
2021/09/02 10:22:12;;;;;;;17.30;11.60;;;19.40;99.90;;;;;;4992630;28;20195;-81
2021/09/02 10:24:41;;;;;;;18.70;11.57;;;19.50;99.90;;;;;;4991823;28;20198;-82
2021/09/02 10:27:36;;;;;;;15.20;11.40;;;19.80;99.90;;;;;;4990415;28;20203;-83
2021/09/02 10:30:23;;;;;;;16.73;12.38;;;19.50;99.90;;;;;;4988237;28;20604;-83
2021/09/02 10:32:50;;;;;;;15.65;12.48;;;19.50;99.90;;;;;;4993555;28;20209;-87
2021/09/02 10:35:35;;;;;;;17.67;11.93;;;19.50;99.90;;;;;;4971868;28;20323;-83
2021/09/02 10:38:03;;;;;;;18.10;12.13;;;19.40;99.90;;;;;;4991112;28;20289;-87
2021/09/02 10:40:55;;;;;;;16.13;11.07;;;19.30;99.90;;;;;;4991447;28;20222;-90
2021/09/02 10:43:56;;;;;;;15.80;13.10;;;19.40;99.90;;;;;;4972912;28;20495;-86
2021/09/02 10:46:35;;;;;;;16.27;11.98;;;19.60;99.90;;;;;;4935152;29;20610;-81
2021/09/02 10:49:20;;;;;;;15.02;11.32;;;19.20;99.90;;;;;;4930440;29;20611;-84
2021/09/02 10:51:49;;;;;;;16.20;12.38;;;19.40;99.90;;;;;;4965214;28;20197;-81
2021/09/02 10:54:20;;;;;;;17.65;11.10;;;19.30;99.90;;;;;;4986050;28;20625;-79
2021/09/02 10:56:56;;;;;;;15.18;10.82;;;19.70;99.90;;;;;;4989418;28;20231;-84
2021/09/02 10:59:50;;;;;;;16.88;11.77;;;20.30;99.90;;;;;;4993337;28;20201;-89
2021/09/02 11:02:42;;;;;;;18.10;11.48;;;20.30;99.90;;;;;;4983200;28;20195;-84
2021/09/02 11:05:12;;;;;;;22.17;14.27;;;20.80;99.80;;;;;;4984915;28;20226;-81
2021/09/02 11:07:42;;;;;;;17.17;12.40;;;20.50;99.80;;;;;;4987314;28;21071;-82
2021/09/02 11:10:18;;;;;;;17.17;11.70;;;20.00;99.90;;;;;;4991186;28;20622;-79
2021/09/02 11:12:46;;;;;;;15.68;10.75;;;20.20;99.90;;;;;;4985699;28;20776;-82
2021/09/02 11:15:22;;;;;;;15.05;10.75;;;20.20;99.90;;;;;;4993482;28;20262;-83
2021/09/02 11:17:54;;;;;;;18.05;11.77;;;19.90;99.90;;;;;;4988326;28;20240;-87
2021/09/02 11:20:23;;;;;;;17.75;11.40;;;19.70;99.90;;;;;;4979637;28;20219;-81
2021/09/02 11:22:50;;;;;;;17.50;9.77;;;20.00;99.90;;;;;;4989864;28;20689;-82
2021/09/02 11:25:19;;;;;;;13.55;9.93;;;20.40;99.90;;;;;;4985521;28;20199;-82
2021/09/02 11:27:46;;;;;;;17.20;10.15;;;20.10;99.90;;;;;;4989137;28;20222;-83
2021/09/02 11:30:25;;;;;;;28.73;17.40;;;20.10;99.90;;;;;;4990391;28;20257;-84
2021/09/02 11:32:54;;;;;;;13.95;10.20;;;20.30;99.90;;;;;;4989732;28;20222;-83
2021/09/02 11:35:22;;;;;;;15.60;9.55;;;20.00;99.60;;;;;;4989721;28;20231;-85
2021/09/02 11:37:49;;;;;;;14.38;9.93;;;20.10;99.40;;;;;;4988281;28;20317;-85
2021/09/02 11:40:25;;;;;;;13.68;9.55;;;20.10;99.80;;;;;;4990117;28;20203;-86
2021/09/02 11:42:53;;;;;;;16.48;10.30;;;19.90;99.90;;;;;;4990300;28;20198;-87
2021/09/02 11:45:23;;;;;;;12.85;9.68;;;19.60;99.90;;;;;;4991630;28;20199;-84
2021/09/02 11:47:53;;;;;;;13.88;8.82;;;19.80;99.70;;;;;;4983123;28;20234;-85
2021/09/02 11:50:22;;;;;;;14.40;9.07;;;20.20;99.90;;;;;;4991282;28;20289;-82
2021/09/02 11:52:51;;;;;;;16.38;10.27;;;20.40;99.90;;;;;;4986789;28;20745;-86
2021/09/02 11:55:30;;;;;;;13.98;10.00;;;20.40;99.70;;;;;;4991328;28;20737;-83
2021/09/02 11:57:59;;;;;;;15.38;10.15;;;20.40;98.50;;;;;;4986235;28;20700;-85
2021/09/02 12:00:28;;;;;;;12.40;9.30;;;20.40;99.60;;;;;;4991418;28;20639;-85
2021/09/02 12:02:56;;;;;;;14.38;10.23;;;20.40;99.80;;;;;;4989047;28;20310;-84
2021/09/02 12:05:26;;;;;;;12.57;9.48;;;20.00;99.20;;;;;;4992410;28;20195;-85
2021/09/02 12:07:55;;;;;;;13.35;10.00;;;20.10;99.70;;;;;;4991149;28;20281;-83
2021/09/02 12:10:23;;;;;;;12.77;9.32;;;20.20;98.80;;;;;;4992121;28;20213;-83
2021/09/02 12:12:50;;;;;;;12.88;8.68;;;20.40;99.90;;;;;;4988658;28;20199;-82
2021/09/02 12:15:24;;;;;;;13.77;10.05;;;20.20;99.30;;;;;;4992228;28;20277;-84
2021/09/02 12:18:06;;;;;;;12.02;10.00;;;20.10;99.80;;;;;;4984465;28;20219;-77
2021/09/02 12:20:34;;;;;;;15.35;10.32;;;20.40;99.10;;;;;;4996226;28;20222;-84
2021/09/02 12:23:21;;;;;;;13.48;9.55;;;20.10;98.90;;;;;;4996608;28;20696;-87
2021/09/02 12:25:58;;;;;;;18.23;10.68;;;20.30;99.70;;;;;;4999135;28;20289;-87
2021/09/02 12:28:36;;;;;;;14.43;10.52;;;20.10;99.00;;;;;;4993868;28;20995;-88
2021/09/02 12:31:17;;;;;;;13.88;9.77;;;20.10;99.70;;;;;;4995794;28;20662;-84
2021/09/02 12:34:03;;;;;;;14.45;10.50;;;20.60;98.70;;;;;;4998179;28;20226;-87
2021/09/02 12:36:32;;;;;;;13.57;10.48;;;20.50;99.30;;;;;;5012413;28;20236;-86
2021/09/02 12:39:20;;;;;;;13.10;9.77;;;20.70;98.00;;;;;;4999724;28;20605;-84
2021/09/02 12:41:48;;;;;;;13.35;9.25;;;21.00;98.30;;;;;;4982835;28;20723;-83
2021/09/02 12:44:23;;;;;;;12.73;9.60;;;21.40;98.60;;;;;;4996591;28;20235;-83
2021/09/02 12:46:53;;;;;;;11.57;9.48;;;21.70;97.60;;;;;;4995839;28;20248;-84